Time;durP1;ratioP1;P1;durP2;ratioP2;P2;SDS_P1;SDS_P2;PMS_P1;PMS_P2;Temp;Humidity;BMP_temperature;BMP_pressure;BME280_temperature;BME280_humidity;BME280_pressure;Samples;Min_cycle;Max_cycle;Signal;HPM_P1;HPM_P2
2021/08/26 00:07:22;;;;;;;13.07;2.40;;;;;;;;;;4836538;28;20207;-81
2021/08/26 00:09:45;;;;;;;5.83;1.20;;;;;;;;;;4836738;28;20236;-80
2021/08/26 00:12:08;;;;;;;6.77;1.33;;;7.10;35.40;;;;;;4837164;28;20667;-78
2021/08/26 00:14:31;;;;;;;6.97;1.40;;;;;;;;;;4897147;28;20221;-86
2021/08/26 00:16:53;;;;;;;3.40;0.90;;;;;;;;;;4836501;28;20183;-77
2021/08/26 00:19:18;;;;;;;12.80;2.37;;;;;;;;;;4837005;28;20190;-85
2021/08/26 00:21:43;;;;;;;5.53;1.17;;;7.20;36.30;;;;;;4837313;28;20263;-85
2021/08/26 00:24:06;;;;;;;6.13;1.30;;;;;;;;;;4904355;28;20585;-84
2021/08/26 00:26:31;;;;;;;7.63;1.53;;;;;;;;;;4831903;28;20608;-85
2021/08/26 00:28:54;;;;;;;3.97;0.93;;;;;;;;;;4836440;28;20616;-85
2021/08/26 00:31:17;;;;;;;13.93;2.53;;;;;;;;;;4836117;28;20190;-86
2021/08/26 00:33:39;;;;;;;4.37;0.97;;;;;;;;;;4837291;28;20236;-85
2021/08/26 00:36:02;;;;;;;4.57;1.10;;;;;;;;;;4837160;28;20199;-79
2021/08/26 00:38:26;;;;;;;13.73;2.50;;;7.60;33.50;;;;;;4834901;28;20217;-80
2021/08/26 00:40:49;;;;;;;11.33;2.10;;;;;;;;;;4835988;28;20218;-86
2021/08/26 00:43:13;;;;;;;5.43;1.13;;;;;;;;;;4836877;28;20273;-75
2021/08/26 00:45:36;;;;;;;3.73;0.90;;;;;;;;;;4837407;28;20191;-84
2021/08/26 00:47:59;;;;;;;5.10;1.13;;;;;;;;;;4836424;28;20247;-85
2021/08/26 00:50:24;;;;;;;11.87;2.23;;;8.10;32.40;;;;;;4836901;28;20186;-87
2021/08/26 00:52:47;;;;;;;7.80;1.50;;;;;;;;;;4837360;28;20599;-84
2021/08/26 00:55:13;;;;;;;7.10;1.40;;;8.30;32.90;;;;;;4826890;28;20195;-86
2021/08/26 00:57:36;;;;;;;6.40;1.13;;;8.40;32.90;;;;;;4836888;28;20195;-84
2021/08/26 00:59:59;;;;;;;5.87;1.27;;;;;;;;;;4832601;28;20195;-86
2021/08/26 01:02:30;;;;;;;11.77;2.20;;;8.60;33.90;;;;;;4835144;28;20214;-86
2021/08/26 01:04:56;;;;;;;4.23;0.90;;;8.60;35.50;;;;;;4834511;28;20209;-82
2021/08/26 01:07:25;;;;;;;12.17;2.23;;;8.70;36.20;;;;;;4836494;28;20214;-85
2021/08/26 01:09:55;;;;;;;5.47;1.13;;;8.80;36.50;;;;;;4836499;28;20190;-84
2021/08/26 01:12:24;;;;;;;13.70;2.37;;;8.90;37.00;;;;;;4836491;28;20195;-83
2021/08/26 01:14:47;;;;;;;5.60;1.20;;;;;;;;;;4837157;28;20195;-85
2021/08/26 01:17:09;;;;;;;6.27;1.30;;;;;;;;;;4904483;28;20188;-83
2021/08/26 01:19:32;;;;;;;6.63;1.37;;;;;;;;;;4836332;28;20708;-79
2021/08/26 01:21:55;;;;;;;3.87;0.80;;;;;;;;;;4836905;28;20226;-86
2021/08/26 01:24:19;;;;;;;12.47;2.13;;;9.30;38.70;;;;;;4836786;28;20179;-82
2021/08/26 01:26:47;;;;;;;3.73;0.90;;;9.30;38.90;;;;;;4837136;28;20643;-86
2021/08/26 01:29:10;;;;;;;4.57;1.00;;;;;;;;;;4835990;28;20190;-86
2021/08/26 01:31:33;;;;;;;4.23;0.97;;;;;;;;;;4836683;28;20255;-82
2021/08/26 01:33:56;;;;;;;5.30;1.03;;;9.50;38.60;;;;;;4836665;28;20594;-84
2021/08/26 01:36:19;;;;;;;13.67;2.40;;;9.50;38.50;;;;;;4904600;28;20192;-85
2021/08/26 01:38:42;;;;;;;5.83;1.23;;;;;;;;;;4836787;28;20190;-86
2021/08/26 01:41:05;;;;;;;5.27;1.10;;;;;;;;;;4836555;28;20267;-85
2021/08/26 01:43:30;;;;;;;11.23;2.07;;;9.70;39.50;;;;;;4837122;28;20218;-87
2021/08/26 01:45:52;;;;;;;3.67;0.87;;;;;;;;;;4836460;28;20586;-85
2021/08/26 01:48:16;;;;;;;9.37;1.77;;;9.70;39.90;;;;;;4836730;28;20248;-86
2021/08/26 01:50:39;;;;;;;4.90;1.07;;;;;;;;;;4904625;28;20629;-85
2021/08/26 01:53:02;;;;;;;4.43;1.00;;;;;;;;;;4836199;28;20191;-86
2021/08/26 01:55:25;;;;;;;13.73;2.30;;;;;;;;;;4836765;28;20190;-87
2021/08/26 01:57:47;;;;;;;4.90;1.03;;;;;;;;;;4836819;28;20194;-85
2021/08/26 02:00:13;;;;;;;4.77;1.03;;;10.00;39.80;;;;;;4836371;28;20236;-86
2021/08/26 02:02:35;;;;;;;7.73;1.47;;;;;;;;;;4901484;28;20216;-86
2021/08/26 02:04:58;;;;;;;4.73;1.00;;;;;;;;;;4836560;28;20186;-86
2021/08/26 02:07:21;;;;;;;11.80;2.13;;;;;;;;;;4836311;28;20749;-81
2021/08/26 02:09:43;;;;;;;4.40;1.00;;;;;;;;;;4836361;28;20191;-86
2021/08/26 02:12:07;;;;;;;5.83;1.20;;;10.10;40.50;;;;;;4834726;28;20190;-85
2021/08/26 02:14:29;;;;;;;10.13;1.83;;;;;;;;;;4903444;28;20245;-86
2021/08/26 02:16:53;;;;;;;1.30;0.50;;;10.10;40.50;;;;;;4903850;28;20241;-85
2021/08/26 02:19:16;;;;;;;16.10;2.83;;;10.20;40.50;;;;;;4835113;28;20256;-85
2021/08/26 02:21:39;;;;;;;9.00;1.80;;;;;;;;;;4835599;28;20244;-86
2021/08/26 02:24:02;;;;;;;7.13;1.40;;;;;;;;;;4834109;28;20211;-87
2021/08/26 02:26:25;;;;;;;13.67;2.40;;;;;;;;;;4835902;28;20663;-87
2021/08/26 02:28:48;;;;;;;6.73;1.20;;;;;;;;;;4836104;28;20217;-85
2021/08/26 02:31:10;;;;;;;6.03;1.17;;;;;;;;;;4835875;28;20198;-86
2021/08/26 02:33:34;;;;;;;4.63;1.00;;;10.30;41.40;;;;;;4836133;28;20711;-84
2021/08/26 02:35:57;;;;;;;4.83;0.93;;;;;;;;;;4835907;28;20191;-82
2021/08/26 02:38:19;;;;;;;9.87;1.77;;;;;;;;;;4835288;28;20199;-84
2021/08/26 02:40:42;;;;;;;3.37;0.80;;;;;;;;;;4835934;28;20229;-83
2021/08/26 02:43:05;;;;;;;4.47;0.97;;;;;;;;;;4835583;28;20214;-82
2021/08/26 02:45:28;;;;;;;10.43;1.87;;;;;;;;;;4834838;28;20191;-82
2021/08/26 02:47:50;;;;;;;4.07;0.87;;;;;;;;;;4836304;28;20676;-84
2021/08/26 02:50:14;;;;;;;3.53;0.80;;;10.60;42.10;;;;;;4903730;28;20539;-80
2021/08/26 02:52:37;;;;;;;3.60;0.77;;;;;;;;;;4836018;28;20190;-87
2021/08/26 02:55:00;;;;;;;5.90;1.10;;;;;;;;;;4835629;28;20251;-82
2021/08/26 02:57:22;;;;;;;13.10;2.30;;;;;;;;;;4835548;28;20191;-85
2021/08/26 02:59:45;;;;;;;4.63;1.00;;;;;;;;;;4903633;28;20192;-86
2021/08/26 03:02:08;;;;;;;5.30;1.07;;;;;;;;;;4901880;28;20221;-85
2021/08/26 03:04:30;;;;;;;6.73;1.40;;;;;;;;;;4911064;28;20219;-86
2021/08/26 03:06:54;;;;;;;3.63;0.90;;;10.50;41.90;;;;;;4835376;28;20661;-79
2021/08/26 03:09:17;;;;;;;8.80;1.50;;;;;;;;;;4903629;28;20211;-86
2021/08/26 03:11:40;;;;;;;3.13;0.70;;;;;;;;;;4903864;28;20200;-87
2021/08/26 03:14:02;;;;;;;6.37;1.23;;;;;;;;;;4835891;28;20191;-87
2021/08/26 03:16:25;;;;;;;13.10;2.30;;;;;;;;;;4835643;28;20191;-86
2021/08/26 03:18:48;;;;;;;4.57;0.90;;;;;;;;;;4836133;28;20187;-84
2021/08/26 03:21:11;;;;;;;4.27;0.97;;;;;;;;;;4835734;28;20243;-88
2021/08/26 03:23:34;;;;;;;4.83;1.00;;;10.80;44.20;;;;;;4836262;28;20250;-77
2021/08/26 03:25:57;;;;;;;4.30;0.97;;;;;;;;;;4838896;28;20240;-85
2021/08/26 03:28:20;;;;;;;11.83;2.07;;;;;;;;;;4837421;28;20725;-87
2021/08/26 03:30:43;;;;;;;2.97;0.63;;;;;;;;;;4838929;28;20179;-86
2021/08/26 03:33:06;;;;;;;3.87;0.90;;;;;;;;;;4839172;28;20190;-85
2021/08/26 03:35:29;;;;;;;9.60;1.73;;;;;;;;;;4839031;28;20255;-86
2021/08/26 03:37:51;;;;;;;8.67;1.63;;;;;;;;;;4838442;28;20187;-86
2021/08/26 03:40:15;;;;;;;4.80;1.03;;;11.10;45.40;;;;;;4837463;28;20194;-76
2021/08/26 03:42:38;;;;;;;7.53;1.40;;;;;;;;;;4837094;28;20545;-75
2021/08/26 03:45:01;;;;;;;5.17;1.10;;;;;;;;;;4837250;28;20194;-77
2021/08/26 03:47:24;;;;;;;15.43;2.63;;;;;;;;;;4836460;28;20244;-81
2021/08/26 03:49:46;;;;;;;4.83;1.00;;;;;;;;;;4837536;28;20195;-80
2021/08/26 03:52:09;;;;;;;6.73;1.27;;;;;;;;;;4837222;28;20187;-75
2021/08/26 03:54:32;;;;;;;10.93;2.00;;;;;;;;;;4837735;28;20605;-84
2021/08/26 03:56:55;;;;;;;3.30;0.73;;;11.30;45.50;;;;;;4838477;28;20236;-86
2021/08/26 03:59:19;;;;;;;13.93;2.43;;;;;;;;;;4837453;28;20611;-79
2021/08/26 04:01:41;;;;;;;3.87;0.83;;;;;;;;;;4836713;28;20240;-83
2021/08/26 04:04:04;;;;;;;3.83;0.90;;;;;;;;;;4838250;28;20646;-84
2021/08/26 04:06:27;;;;;;;11.93;2.10;;;;;;;;;;4831997;28;20228;-85
2021/08/26 04:08:49;;;;;;;7.40;1.43;;;;;;;;;;4905376;28;20192;-82
2021/08/26 04:11:12;;;;;;;4.00;0.87;;;;;;;;;;4837525;28;20260;-86
2021/08/26 04:13:36;;;;;;;2.63;0.67;;;11.30;45.60;;;;;;4838346;28;20236;-86
2021/08/26 04:15:59;;;;;;;5.13;1.00;;;;;;;;;;4906499;28;20195;-77
2021/08/26 04:18:22;;;;;;;12.40;2.13;;;;;;;;;;4905741;28;20196;-86
2021/08/26 04:20:45;;;;;;;7.13;1.37;;;11.40;45.60;;;;;;4837868;28;20239;-88
2021/08/26 04:23:08;;;;;;;3.17;0.77;;;;;;;;;;4837864;28;20230;-87
2021/08/26 04:25:30;;;;;;;10.37;1.80;;;;;;;;;;4905676;28;20217;-86
2021/08/26 04:27:53;;;;;;;4.13;0.87;;;;;;;;;;4905506;28;20218;-86
2021/08/26 04:30:17;;;;;;;6.97;1.33;;;11.30;45.80;;;;;;4837806;28;20186;-85
2021/08/26 04:32:43;;;;;;;5.87;1.10;;;;;;;;;;4905694;28;20289;-86
2021/08/26 04:35:06;;;;;;;5.17;1.10;;;;;;;;;;4836864;28;20195;-85
2021/08/26 04:37:29;;;;;;;7.73;1.50;;;;;;;;;;4830297;28;20187;-85
2021/08/26 04:39:52;;;;;;;4.13;0.90;;;;;;;;;;4837846;28;20212;-84
2021/08/26 04:42:15;;;;;;;6.60;1.27;;;;;;;;;;4836902;28;20194;-84
2021/08/26 04:44:37;;;;;;;6.13;1.13;;;;;;;;;;4838054;28;20259;-85
2021/08/26 04:47:01;;;;;;;2.43;0.60;;;11.70;45.70;;;;;;4837776;28;20202;-87
2021/08/26 04:49:24;;;;;;;11.43;2.00;;;;;;;;;;4837431;28;20584;-89
2021/08/26 04:51:47;;;;;;;4.13;1.00;;;;;;;;;;4832399;28;20187;-88
2021/08/26 04:54:10;;;;;;;7.13;1.40;;;;;;;;;;4831995;28;20269;-79
2021/08/26 04:56:32;;;;;;;6.07;1.23;;;;;;;;;;4837244;28;20213;-89
2021/08/26 04:58:55;;;;;;;1.70;0.47;;;;;;;;;;4837828;28;20247;-88
2021/08/26 05:01:18;;;;;;;10.27;1.77;;;;;;;;;;4835772;28;20191;-80
2021/08/26 05:03:42;;;;;;;4.00;0.80;;;12.10;45.70;;;;;;4837366;28;20219;-86
2021/08/26 05:06:05;;;;;;;4.57;0.97;;;;;;;;;;4837267;28;20195;-87
2021/08/26 05:08:30;;;;;;;8.50;1.60;;;;;;;;;;4832725;28;20231;-87
2021/08/26 05:10:53;;;;;;;2.57;0.63;;;;;;;;;;4837326;28;20198;-86
2021/08/26 05:13:15;;;;;;;9.33;1.70;;;;;;;;;;4835018;28;20604;-85
2021/08/26 05:15:38;;;;;;;3.60;0.80;;;;;;;;;;4831969;28;20187;-80
2021/08/26 05:18:01;;;;;;;5.53;1.07;;;;;;;;;;4903259;28;20196;-76
2021/08/26 05:20:25;;;;;;;11.63;2.13;;;12.60;46.50;;;;;;4901777;28;20195;-78
2021/08/26 05:22:48;;;;;;;5.07;1.03;;;;;;;;;;4834966;28;20218;-78
2021/08/26 05:25:10;;;;;;;7.17;1.37;;;;;;;;;;4900981;28;20675;-81
2021/08/26 05:27:34;;;;;;;5.00;1.00;;;12.70;46.70;;;;;;4836099;28;20232;-77
2021/08/26 05:29:57;;;;;;;4.70;1.03;;;;;;;;;;4835793;28;20743;-80
2021/08/26 05:32:20;;;;;;;12.63;2.33;;;;;;;;;;4835302;28;20673;-75
2021/08/26 05:34:42;;;;;;;4.73;0.90;;;;;;;;;;4835338;28;20240;-73
2021/08/26 05:37:06;;;;;;;4.07;0.90;;;12.80;47.50;;;;;;4824380;28;20231;-82
2021/08/26 05:39:29;;;;;;;9.40;1.67;;;;;;;;;;4835510;28;20190;-80
2021/08/26 05:41:52;;;;;;;4.03;0.97;;;;;;;;;;4835647;28;20236;-77
2021/08/26 05:44:16;;;;;;;6.07;1.23;;;14.10;48.00;;;;;;4902115;28;20812;-78
2021/08/26 05:46:39;;;;;;;2.87;0.60;;;;;;;;;;4835247;28;20183;-82
2021/08/26 05:49:01;;;;;;;5.53;1.10;;;;;;;;;;4902954;28;20336;-80
2021/08/26 05:51:24;;;;;;;14.50;2.47;;;;;;;;;;4835358;28;20195;-77
2021/08/26 05:53:48;;;;;;;4.67;1.00;;;13.20;47.90;;;;;;4835610;28;20228;-75
2021/08/26 05:56:10;;;;;;;7.40;1.33;;;;;;;;;;4902603;28;20200;-73
2021/08/26 05:58:33;;;;;;;5.53;1.13;;;;;;;;;;4902201;28;20204;-75
2021/08/26 06:00:56;;;;;;;4.53;0.93;;;;;;;;;;4833805;28;20198;-73
2021/08/26 06:03:19;;;;;;;12.67;2.20;;;;;;;;;;4834290;28;20236;-76
2021/08/26 06:05:41;;;;;;;7.27;1.40;;;;;;;;;;4834567;28;20231;-75
2021/08/26 06:08:04;;;;;;;5.30;1.00;;;13.30;47.80;;;;;;4834131;28;20211;-72
2021/08/26 06:10:28;;;;;;;10.60;1.93;;;13.30;47.80;;;;;;4828370;28;20260;-87
2021/08/26 06:12:52;;;;;;;4.50;1.00;;;;;;;;;;4835035;28;20243;-86
2021/08/26 06:15:15;;;;;;;4.33;0.93;;;13.40;47.70;;;;;;4903234;28;20188;-90
2021/08/26 06:17:40;;;;;;;10.47;1.87;;;;;;;;;;4835622;28;20887;-79
2021/08/26 06:20:04;;;;;;;3.20;0.70;;;13.50;47.90;;;;;;4900936;28;20195;-74
2021/08/26 06:22:27;;;;;;;10.87;2.03;;;;;;;;;;4816825;28;20227;-85
2021/08/26 06:24:49;;;;;;;5.63;1.23;;;;;;;;;;4817435;28;20249;-82
2021/08/26 06:27:14;;;;;;;3.17;0.80;;;13.70;47.80;;;;;;4818660;28;20203;-74
2021/08/26 06:29:37;;;;;;;4.00;0.87;;;;;;;;;;4818106;28;20249;-89
2021/08/26 06:32:00;;;;;;;2.97;0.70;;;;;;;;;;4818468;28;20183;-93
2021/08/26 06:34:22;;;;;;;7.67;1.43;;;;;;;;;;4818442;28;20645;-91
2021/08/26 06:36:45;;;;;;;3.63;0.70;;;;;;;;;;4818347;28;20236;-84
2021/08/26 06:39:08;;;;;;;12.90;2.40;;;;;;;;;;4817923;28;20236;-85
2021/08/26 06:41:32;;;;;;;10.07;1.80;;;;;;;;;;4835438;28;20220;-89
2021/08/26 06:43:56;;;;;;;3.07;0.67;;;14.00;47.80;;;;;;4838100;28;20190;-88
2021/08/26 06:46:18;;;;;;;8.57;1.40;;;;;;;;;;4836299;28;20806;-85
2021/08/26 06:48:41;;;;;;;6.23;1.23;;;;;;;;;;4836156;28;20182;-88
2021/08/26 06:51:04;;;;;;;3.93;0.73;;;;;;;;;;4836879;28;20182;-85
2021/08/26 06:53:26;;;;;;;9.57;1.70;;;;;;;;;;4837604;28;20179;-81
2021/08/26 06:55:49;;;;;;;6.87;1.30;;;;;;;;;;4836431;28;20190;-91
2021/08/26 06:58:12;;;;;;;2.67;0.67;;;;;;;;;;4838351;28;20263;-88
2021/08/26 07:00:35;;;;;;;53.13;8.57;;;14.00;47.80;;;;;;4837198;28;20236;-83
2021/08/26 07:02:58;;;;;;;3.20;0.70;;;;;;;;;;4840758;28;20240;-88
2021/08/26 07:05:22;;;;;;;10.80;1.87;;;14.70;48.10;;;;;;4839020;28;20218;-88
2021/08/26 07:07:45;;;;;;;5.63;1.07;;;;;;;;;;4907362;28;20220;-88
2021/08/26 07:10:08;;;;;;;5.80;1.10;;;14.20;47.90;;;;;;4839297;28;20220;-86
2021/08/26 07:12:31;;;;;;;9.83;1.70;;;;;;;;;;4837927;28;20752;-86
2021/08/26 07:14:54;;;;;;;3.17;0.70;;;;;;;;;;4839592;28;20732;-76
2021/08/26 07:17:19;;;;;;;8.50;1.53;;;14.40;48.20;;;;;;4839245;28;20187;-85
2021/08/26 07:19:42;;;;;;;4.60;0.90;;;;;;;;;;4839147;28;20190;-84
2021/08/26 07:22:05;;;;;;;9.10;1.60;;;;;;;;;;4838262;28;20218;-89
2021/08/26 07:24:27;;;;;;;7.87;1.47;;;;;;;;;;4825995;28;20252;-82
2021/08/26 07:26:50;;;;;;;5.33;1.07;;;;;;;;;;4901273;28;20179;-82
2021/08/26 07:29:13;;;;;;;4.70;0.93;;;;;;;;;;4896282;28;20200;-87
2021/08/26 07:31:35;;;;;;;3.07;0.60;;;;;;;;;;4820159;28;20184;-82
2021/08/26 07:33:59;;;;;;;3.73;0.80;;;14.50;48.30;;;;;;4820841;28;20191;-90
2021/08/26 07:36:22;;;;;;;10.50;1.83;;;;;;;;;;4886817;28;20184;-77
2021/08/26 07:38:45;;;;;;;7.73;1.47;;;;;;;;;;4888602;28;20200;-82
2021/08/26 07:41:07;;;;;;;5.73;1.13;;;;;;;;;;4837324;28;20614;-82
2021/08/26 07:43:33;;;;;;;11.93;2.10;;;;;;;;;;4837551;28;20649;-86
2021/08/26 07:45:55;;;;;;;3.93;0.73;;;;;;;;;;4837614;28;20210;-86
2021/08/26 07:48:18;;;;;;;10.50;1.73;;;;;;;;;;4827745;28;20199;-78
2021/08/26 07:50:42;;;;;;;7.90;1.37;;;14.50;48.30;;;;;;4824171;28;20203;-82
2021/08/26 07:53:05;;;;;;;5.97;1.10;;;;;;;;;;4838206;28;20195;-84
2021/08/26 07:55:27;;;;;;;10.67;1.83;;;;;;;;;;4837398;28;20186;-83
2021/08/26 07:57:50;;;;;;;6.03;1.13;;;;;;;;;;4837752;28;20183;-76
2021/08/26 08:00:14;;;;;;;9.77;1.80;;;14.30;48.00;;;;;;4836090;28;20187;-74
2021/08/26 08:02:36;;;;;;;6.13;1.13;;;;;;;;;;4902708;28;20310;-83
2021/08/26 08:04:59;;;;;;;24.60;4.13;;;;;;;;;;4900978;28;20227;-78
2021/08/26 08:07:23;;;;;;;12.20;2.03;;;14.30;47.60;;;;;;4818925;28;20207;-75
2021/08/26 08:09:46;;;;;;;10.47;1.90;;;;;;;;;;4814232;28;20937;-70
2021/08/26 08:12:09;;;;;;;7.17;1.27;;;;;;;;;;4817163;28;20200;-73
2021/08/26 08:14:32;;;;;;;11.57;2.23;;;;;;;;;;4817626;28;20526;-79
2021/08/26 08:16:55;;;;;;;4.07;0.90;;;;;;;;;;4817587;28;20200;-78
2021/08/26 08:19:18;;;;;;;8.20;1.50;;;;;;;;;;4817839;28;20199;-78
2021/08/26 08:21:41;;;;;;;9.43;1.73;;;;;;;;;;4816525;28;20267;-80
2021/08/26 08:24:08;;;;;;;6.53;1.20;;;14.80;48.20;;;;;;4819896;28;20183;-77
2021/08/26 08:26:35;;;;;;;5.13;1.03;;;;;;;;;;4818837;28;21044;-76
2021/08/26 08:28:57;;;;;;;5.03;1.00;;;;;;;;;;4817941;28;20187;-75
2021/08/26 08:31:20;;;;;;;11.17;1.97;;;;;;;;;;4827883;28;20245;-72
2021/08/26 08:33:44;;;;;;;5.27;1.03;;;;;;;;;;4836699;28;20219;-73
2021/08/26 08:36:07;;;;;;;5.47;1.10;;;14.80;48.20;;;;;;4836459;28;20187;-73
2021/08/26 08:38:30;;;;;;;9.97;1.80;;;;;;;;;;4903413;28;20188;-75
2021/08/26 08:40:54;;;;;;;5.23;1.00;;;14.80;48.20;;;;;;4905700;28;20648;-74
2021/08/26 08:43:17;;;;;;;7.57;1.47;;;;;;;;;;4836177;28;20187;-73
2021/08/26 08:45:39;;;;;;;7.50;1.40;;;;;;;;;;4836403;28;20214;-73
2021/08/26 08:48:05;;;;;;;3.80;0.77;;;14.60;48.00;;;;;;4835364;28;20252;-75
2021/08/26 08:50:28;;;;;;;9.30;1.63;;;;;;;;;;4836399;28;20183;-75
2021/08/26 08:52:51;;;;;;;13.83;4.80;;;;;;;;;;4836303;28;20186;-74
2021/08/26 08:55:14;;;;;;;42.90;15.13;;;;;;;;;;4824165;28;20191;-74
2021/08/26 08:57:43;;;;;;;15.73;2.13;;;14.50;47.90;;;;;;4817173;28;20748;-73
2021/08/26 09:00:10;;;;;;;8.77;1.20;;;14.40;47.70;;;;;;4817177;28;20559;-73
2021/08/26 09:02:32;;;;;;;15.83;1.97;;;;;;;;;;4815073;28;20200;-74
2021/08/26 09:04:56;;;;;;;8.77;1.13;;;14.50;47.30;;;;;;4832714;28;20194;-73
2021/08/26 09:07:24;;;;;;;20.67;2.73;;;14.40;47.30;;;;;;4834431;28;20218;-79
2021/08/26 09:09:51;;;;;;;13.07;1.90;;;14.40;46.90;;;;;;4834252;28;20190;-81
2021/08/26 09:12:14;;;;;;;15.10;2.13;;;;;;;;;;4836205;28;20198;-78
2021/08/26 09:14:38;;;;;;;7.27;1.10;;;14.40;46.40;;;;;;4846187;28;20240;-75
2021/08/26 09:17:02;;;;;;;8.83;1.33;;;;;;;;;;4835500;28;20191;-76
2021/08/26 09:19:29;;;;;;;14.93;2.27;;;14.50;46.10;;;;;;4834764;28;20733;-76
2021/08/26 09:21:52;;;;;;;5.93;1.10;;;14.50;46.10;;;;;;4835116;28;20658;-77
2021/08/26 09:24:15;;;;;;;7.87;1.17;;;14.30;46.20;;;;;;4835182;28;20182;-79
2021/08/26 09:26:38;;;;;;;8.13;1.40;;;;;;;;;;4836069;28;20343;-78
2021/08/26 09:29:03;;;;;;;5.77;1.00;;;14.10;45.00;;;;;;4835716;28;20271;-77
2021/08/26 09:31:28;;;;;;;14.53;2.20;;;14.00;45.00;;;;;;4902252;28;20191;-78
2021/08/26 09:33:55;;;;;;;8.43;1.43;;;13.90;43.80;;;;;;4835537;28;20635;-78
2021/08/26 09:36:19;;;;;;;10.27;1.60;;;13.90;43.90;;;;;;4835369;28;20244;-82
2021/08/26 09:38:42;;;;;;;7.30;1.23;;;;;;;;;;4835858;28;20248;-78
2021/08/26 09:41:05;;;;;;;6.87;1.17;;;;;;;;;;4835147;28;20187;-78
2021/08/26 09:43:32;;;;;;;6.53;1.10;;;13.90;43.50;;;;;;4904141;28;20191;-82
2021/08/26 09:45:55;;;;;;;5.63;1.10;;;;;;;;;;4835348;28;20218;-84
2021/08/26 09:48:19;;;;;;;7.77;1.23;;;14.00;45.00;;;;;;4836218;28;20247;-77
2021/08/26 09:50:44;;;;;;;7.20;1.30;;;14.00;45.10;;;;;;4835713;28;20194;-87
2021/08/26 09:53:08;;;;;;;4.83;0.97;;;14.00;44.40;;;;;;4835659;28;20592;-85
2021/08/26 09:56:03;;;;;;;8.00;1.37;;;14.00;44.20;;;;;;4836115;28;20186;-89
2021/08/26 09:58:27;;;;;;;10.33;1.73;;;14.00;45.10;;;;;;4836874;28;20186;-89
2021/08/26 10:00:50;;;;;;;7.67;1.30;;;;;;;;;;4902074;28;20188;-82
2021/08/26 10:03:14;;;;;;;8.43;1.47;;;;;;;;;;4835675;28;20203;-93
2021/08/26 10:05:38;;;;;;;7.53;1.27;;;14.00;45.00;;;;;;4836107;28;20614;-83
2021/08/26 10:08:01;;;;;;;5.17;0.97;;;;;;;;;;4904313;28;20242;-85
2021/08/26 10:10:25;;;;;;;14.93;2.30;;;13.90;44.40;;;;;;4835544;28;22158;-89
2021/08/26 10:12:48;;;;;;;10.50;1.63;;;;;;;;;;4835309;28;20186;-78
2021/08/26 10:15:11;;;;;;;9.00;1.53;;;14.70;43.70;;;;;;4835635;28;20264;-92
2021/08/26 10:17:33;;;;;;;7.63;1.37;;;;;;;;;;4835974;28;20756;-81
2021/08/26 10:19:56;;;;;;;7.13;1.27;;;;;;;;;;4901735;28;20261;-86
2021/08/26 10:22:20;;;;;;;6.60;1.23;;;13.90;39.90;;;;;;4835659;28;20272;-80
2021/08/26 10:24:43;;;;;;;6.77;1.27;;;;;;;;;;4835987;28;20598;-87
2021/08/26 10:27:08;;;;;;;5.40;1.00;;;14.00;41.40;;;;;;4835348;28;20337;-88
2021/08/26 10:29:35;;;;;;;7.80;1.47;;;13.90;43.70;;;;;;4828870;28;20236;-80
2021/08/26 10:31:59;;;;;;;4.73;0.97;;;14.00;43.70;;;;;;4835699;28;20194;-81
2021/08/26 10:34:24;;;;;;;12.00;1.93;;;14.10;43.40;;;;;;4834241;28;20595;-89
2021/08/26 10:37:18;;;;;;;7.40;1.30;;;14.10;44.30;;;;;;4902860;28;20229;-81
2021/08/26 10:39:44;;;;;;;6.07;1.23;;;14.10;44.40;;;;;;4836265;28;20928;-87
2021/08/26 10:42:44;;;;;;;4.53;0.87;;;14.10;43.70;;;;;;4903843;28;20192;-90
2021/08/26 10:45:09;;;;;;;7.27;1.30;;;14.20;44.30;;;;;;4824573;28;20187;-75
2021/08/26 10:48:11;;;;;;;6.97;1.27;;;14.20;44.70;;;;;;4834422;28;20210;-85
2021/08/26 10:50:37;;;;;;;7.97;1.43;;;14.20;44.40;;;;;;4834957;28;20663;-80
2021/08/26 10:53:02;;;;;;;5.50;1.03;;;14.10;45.40;;;;;;4834200;28;20182;-78
2021/08/26 10:55:31;;;;;;;16.90;2.87;;;14.00;45.60;;;;;;4833020;28;20671;-77
2021/08/26 10:57:54;;;;;;;6.23;1.13;;;;;;;;;;4834577;28;20203;-78
2021/08/26 11:00:40;;;;;;;8.43;1.47;;;13.90;44.40;;;;;;4834076;28;20662;-77
2021/08/26 11:03:03;;;;;;;6.77;1.30;;;;;;;;;;4836101;28;20244;-74
2021/08/26 11:05:35;;;;;;;11.03;1.93;;;14.00;44.80;;;;;;4833792;28;20247;-75
2021/08/26 11:07:58;;;;;;;4.43;0.83;;;;;;;;;;4834520;28;20222;-77
2021/08/26 11:10:27;;;;;;;6.00;1.07;;;14.00;45.20;;;;;;4834146;28;20283;-79
2021/08/26 11:12:52;;;;;;;6.13;1.10;;;14.10;45.30;;;;;;4834308;28;20183;-75
2021/08/26 11:15:26;;;;;;;7.90;1.47;;;14.20;45.90;;;;;;4859455;28;20191;-79
2021/08/26 11:17:49;;;;;;;6.53;1.20;;;;;;;;;;4833055;28;20170;-76
2021/08/26 11:20:43;;;;;;;6.30;1.20;;;14.10;46.20;;;;;;4833126;28;20209;-73
2021/08/26 11:23:08;;;;;;;4.40;0.93;;;14.20;46.10;;;;;;4852159;28;20230;-75
2021/08/26 11:25:31;;;;;;;10.53;1.80;;;;;;;;;;4831307;28;20224;-75
2021/08/26 11:28:32;;;;;;;6.30;1.23;;;14.20;46.30;;;;;;4823721;28;20218;-77
2021/08/26 11:30:55;;;;;;;7.20;1.33;;;;;;;;;;4831956;28;20247;-77
2021/08/26 11:33:27;;;;;;;8.27;1.40;;;14.40;46.10;;;;;;4833302;28;20652;-77
2021/08/26 11:35:50;;;;;;;7.00;1.30;;;;;;;;;;4828496;28;20183;-78
2021/08/26 11:38:12;;;;;;;9.60;1.67;;;;;;;;;;4832478;28;20195;-74
2021/08/26 11:40:35;;;;;;;10.67;1.83;;;;;;;;;;4833362;28;20610;-77
2021/08/26 11:42:59;;;;;;;5.70;1.20;;;14.70;46.90;;;;;;4833436;28;20240;-80
2021/08/26 11:45:24;;;;;;;15.37;2.53;;;14.70;47.10;;;;;;4834946;28;20618;-76
2021/08/26 11:47:52;;;;;;;7.40;1.30;;;14.80;47.10;;;;;;4831795;28;20219;-74
2021/08/26 11:50:17;;;;;;;6.60;1.23;;;14.70;47.60;;;;;;4820051;28;20189;-81
2021/08/26 11:52:41;;;;;;;5.10;0.93;;;;;;;;;;4836308;28;20248;-77
2021/08/26 11:55:03;;;;;;;6.43;1.13;;;;;;;;;;4836397;28;20529;-73
2021/08/26 11:57:26;;;;;;;11.47;1.97;;;;;;;;;;4904548;28;20249;-73
2021/08/26 11:59:50;;;;;;;7.70;1.47;;;14.80;47.50;;;;;;4836077;28;20187;-74
2021/08/26 12:02:20;;;;;;;6.87;1.20;;;15.10;47.90;;;;;;4834265;28;20254;-80
2021/08/26 12:04:44;;;;;;;7.80;1.40;;;;;;;;;;4905792;28;20188;-81
2021/08/26 12:07:06;;;;;;;4.07;0.70;;;;;;;;;;4882947;28;20224;-83
2021/08/26 12:09:30;;;;;;;10.10;1.73;;;15.40;48.50;;;;;;4837841;28;20191;-85
2021/08/26 12:11:52;;;;;;;4.33;0.93;;;;;;;;;;4837647;28;20187;-84
2021/08/26 12:14:15;;;;;;;4.60;0.87;;;;;;;;;;4838375;28;20192;-85
2021/08/26 12:16:41;;;;;;;2.73;0.50;;;16.00;49.00;;;;;;4906458;28;20192;-80
2021/08/26 12:19:05;;;;;;;7.90;1.30;;;16.10;49.50;;;;;;4837035;28;20183;-77
2021/08/26 12:21:27;;;;;;;7.90;1.40;;;;;;;;;;4836538;28;20190;-84
2021/08/26 12:23:50;;;;;;;10.43;1.83;;;;;;;;;;4867592;28;20188;-77
2021/08/26 12:26:15;;;;;;;7.07;1.37;;;16.30;49.60;;;;;;4853724;28;20201;-80
2021/08/26 12:28:42;;;;;;;3.50;0.70;;;16.30;49.70;;;;;;4903705;28;20636;-78
2021/08/26 12:31:08;;;;;;;11.00;1.90;;;16.10;49.90;;;;;;4836440;28;20603;-79
2021/08/26 12:33:32;;;;;;;12.20;2.10;;;15.90;49.80;;;;;;4830812;28;20187;-75
2021/08/26 12:35:57;;;;;;;7.80;1.40;;;15.70;49.80;;;;;;4835950;28;20247;-76
2021/08/26 12:38:35;;;;;;;8.03;1.43;;;15.50;49.60;;;;;;4834826;28;20601;-78
2021/08/26 12:40:59;;;;;;;7.10;1.30;;;15.40;49.40;;;;;;4835587;28;20714;-75
2021/08/26 12:43:24;;;;;;;13.93;2.37;;;15.30;49.40;;;;;;4834582;28;20202;-75
2021/08/26 12:45:47;;;;;;;6.77;1.23;;;;;;;;;;4903422;28;20237;-76
2021/08/26 12:48:29;;;;;;;4.57;0.87;;;15.50;49.40;;;;;;4835732;28;20699;-88
2021/08/26 12:51:23;;;;;;;7.10;1.30;;;15.70;50.00;;;;;;4905143;28;20193;-78
2021/08/26 12:53:48;;;;;;;7.77;1.40;;;15.90;50.30;;;;;;4845850;28;20206;-75
2021/08/26 12:56:13;;;;;;;7.43;1.27;;;16.10;50.40;;;;;;4902269;28;20195;-73
2021/08/26 12:58:36;;;;;;;9.67;1.67;;;;;;;;;;4832664;28;20796;-77
2021/08/26 13:00:59;;;;;;;5.33;1.00;;;;;;;;;;4833928;28;20190;-81
2021/08/26 13:03:21;;;;;;;18.37;2.97;;;;;;;;;;4834369;28;20236;-82
2021/08/26 13:05:46;;;;;;;6.93;1.23;;;15.70;50.70;;;;;;4893816;28;20239;-87
2021/08/26 13:08:10;;;;;;;5.47;1.03;;;16.20;50.80;;;;;;4836309;28;20210;-77
2021/08/26 13:10:33;;;;;;;10.43;1.93;;;;;;;;;;4836192;28;20191;-76
2021/08/26 13:13:12;;;;;;;4.70;0.87;;;16.20;50.80;;;;;;4836089;28;20713;-79
2021/08/26 13:15:35;;;;;;;9.67;1.73;;;;;;;;;;4836438;28;20209;-75
2021/08/26 13:17:57;;;;;;;7.77;1.30;;;;;;;;;;4835778;28;20255;-75
2021/08/26 13:20:20;;;;;;;8.73;1.53;;;;;;;;;;4834942;28;20190;-75
2021/08/26 13:22:43;;;;;;;5.80;1.10;;;;;;;;;;4902759;28;20233;-76
2021/08/26 13:25:09;;;;;;;9.40;1.60;;;16.80;51.30;;;;;;4833991;28;20199;-73
2021/08/26 13:27:33;;;;;;;9.20;1.67;;;16.80;51.30;;;;;;4834196;28;20218;-76
2021/08/26 13:29:57;;;;;;;10.07;1.63;;;;;;;;;;4842542;28;20194;-85
2021/08/26 13:32:22;;;;;;;4.77;0.90;;;16.80;51.30;;;;;;4895458;28;20216;-79
2021/08/26 13:34:45;;;;;;;5.90;1.00;;;;;;;;;;4903792;28;20218;-81
2021/08/26 13:37:07;;;;;;;6.03;1.10;;;;;;;;;;4835230;28;20227;-82
2021/08/26 13:39:30;;;;;;;12.07;2.03;;;;;;;;;;4862066;28;20187;-83
2021/08/26 13:41:55;;;;;;;7.67;1.40;;;16.90;51.40;;;;;;4834396;28;20603;-75
2021/08/26 13:44:18;;;;;;;6.87;1.20;;;;;;;;;;4901673;28;20231;-83